createdAt,value
2023-04-08T00:01:04.053Z,101214.78
2023-04-08T00:03:32.468Z,101224.91
2023-04-08T00:06:02.502Z,101221.34
2023-04-08T00:08:30.597Z,101219.16
2023-04-08T00:10:58.474Z,101224.31
2023-04-08T00:13:26.582Z,101223.28
2023-04-08T00:15:54.481Z,101222.47
2023-04-08T00:18:23.613Z,101218.03
2023-04-08T00:20:51.445Z,101220.50
2023-04-08T00:23:21.273Z,101218.84
2023-04-08T00:25:49.141Z,101221.31
2023-04-08T00:28:16.899Z,101217.78
2023-04-08T00:30:46.288Z,101225.31
2023-04-08T00:33:14.217Z,101220.00
2023-04-08T00:35:43.408Z,101219.03
2023-04-08T00:38:11.419Z,101225.00
2023-04-08T00:40:40.087Z,101229.81
2023-04-08T00:43:07.890Z,101221.28
2023-04-08T00:45:35.821Z,101228.00
2023-04-08T00:48:05.988Z,101228.19
2023-04-08T00:50:33.872Z,101231.66
2023-04-08T00:53:02.968Z,101240.81
2023-04-08T00:55:30.831Z,101226.91
2023-04-08T00:57:59.595Z,101233.53
2023-04-08T01:00:31.457Z,101237.34
2023-04-08T01:03:13.200Z,101241.97
2023-04-08T01:05:56.302Z,101242.59
2023-04-08T01:08:29.735Z,101243.47
2023-04-08T01:11:02.154Z,101241.63
2023-04-08T01:13:36.906Z,101249.97
2023-04-08T01:16:06.237Z,101247.75
2023-04-08T01:18:37.118Z,101251.06
2023-04-08T01:21:06.911Z,101251.66
2023-04-08T01:23:50.302Z,101244.59
2023-04-08T01:26:25.541Z,101239.22
2023-04-08T01:28:57.585Z,101244.84
2023-04-08T01:31:27.389Z,101245.63
2023-04-08T01:33:57.627Z,101251.09
2023-04-08T01:36:26.837Z,101260.25
2023-04-08T01:38:55.392Z,101258.44
2023-04-08T01:41:24.938Z,101257.94
2023-04-08T01:43:54.916Z,101261.47
2023-04-08T01:46:23.028Z,101263.78
2023-04-08T01:48:52.914Z,101261.31
2023-04-08T01:51:22.552Z,101263.72
2023-04-08T01:53:51.552Z,101263.53
2023-04-08T01:56:26.012Z,101259.59
2023-04-08T01:58:58.642Z,101262.47
2023-04-08T02:01:31.068Z,101260.16
2023-04-08T02:04:01.508Z,101266.91
2023-04-08T02:06:31.253Z,101264.75
2023-04-08T02:09:01.663Z,101267.75
2023-04-08T02:11:32.100Z,101271.97
2023-04-08T02:14:00.260Z,101267.50
2023-04-08T02:16:37.463Z,101262.00
2023-04-08T02:19:14.435Z,101270.69
2023-04-08T02:21:50.612Z,101270.69
2023-04-08T02:24:21.272Z,101268.03
2023-04-08T02:26:52.329Z,101275.44
2023-04-08T02:29:20.557Z,101273.94
2023-04-08T02:31:51.431Z,101271.66
2023-04-08T02:34:22.325Z,101264.00
2023-04-08T02:36:51.806Z,101276.03
2023-04-08T02:39:19.733Z,101276.41
2023-04-08T02:41:51.639Z,101281.53
2023-04-08T02:44:22.568Z,101284.34
2023-04-08T02:46:50.779Z,101280.41
2023-04-08T02:49:18.520Z,101284.84
2023-04-08T02:51:46.228Z,101283.16
2023-04-08T02:54:14.126Z,101287.31
2023-04-08T02:56:42.004Z,101294.13
2023-04-08T02:59:11.242Z,101292.56
2023-04-08T03:01:39.282Z,101301.53
2023-04-08T03:04:07.140Z,101304.88
2023-04-08T03:06:34.915Z,101305.00
2023-04-08T03:09:02.747Z,101296.59
2023-04-08T03:11:30.802Z,101300.16
2023-04-08T03:13:58.546Z,101293.94
2023-04-08T03:16:27.900Z,101295.78
2023-04-08T03:18:56.024Z,101305.56
2023-04-08T03:21:24.525Z,101298.66
2023-04-08T03:23:52.384Z,101306.88
2023-04-08T03:26:20.891Z,101305.38
2023-04-08T03:28:48.929Z,101293.84
2023-04-08T03:31:17.134Z,101302.44
2023-04-08T03:33:46.333Z,101299.56
2023-04-08T03:36:14.094Z,101296.38
2023-04-08T03:38:41.896Z,101288.13
2023-04-08T03:41:09.839Z,101298.38
2023-04-08T03:43:38.086Z,101296.75
2023-04-08T03:46:06.210Z,101298.28
2023-04-08T03:48:34.136Z,101295.28
2023-04-08T03:51:03.522Z,101288.75
2023-04-08T03:53:31.356Z,101295.31
2023-04-08T03:55:59.721Z,101298.25
2023-04-08T03:58:27.386Z,101297.00
2023-04-08T04:00:55.544Z,101299.00
2023-04-08T04:03:23.706Z,101292.69
2023-04-08T04:05:51.628Z,101297.75
2023-04-08T04:08:20.864Z,101295.81
2023-04-08T04:10:48.592Z,101300.59
2023-04-08T04:13:16.470Z,101295.81
2023-04-08T04:15:44.262Z,101289.94
2023-04-08T04:18:12.104Z,101290.13
2023-04-08T04:20:41.409Z,101296.16
2023-04-08T04:23:09.608Z,101290.28
2023-04-08T04:25:41.562Z,101299.16
2023-04-08T04:28:10.043Z,101303.22
2023-04-08T04:30:38.394Z,101298.91
2023-04-08T04:33:06.762Z,101306.34
2023-04-08T04:35:34.933Z,101314.06
2023-04-08T04:38:02.913Z,101302.78
2023-04-08T04:40:30.752Z,101306.03
2023-04-08T04:42:59.916Z,101306.34
2023-04-08T04:45:27.704Z,101306.78
2023-04-08T04:47:55.701Z,101310.81
2023-04-08T04:50:23.632Z,101306.19
2023-04-08T04:52:51.450Z,101309.91
2023-04-08T04:55:19.513Z,101314.56
2023-04-08T04:57:47.245Z,101320.06
2023-04-08T05:00:17.123Z,101326.88
2023-04-08T05:02:45.283Z,101329.63
2023-04-08T05:05:13.358Z,101337.75
2023-04-08T05:07:41.232Z,101329.94
2023-04-08T05:10:10.976Z,101338.28
2023-04-08T05:12:39.016Z,101332.84
2023-04-08T05:15:08.106Z,101332.44
2023-04-08T05:17:37.269Z,101338.81
2023-04-08T05:20:06.612Z,101340.19
2023-04-08T05:22:34.540Z,101343.41
2023-04-08T05:25:02.337Z,101344.56
2023-04-08T05:27:30.567Z,101346.13
2023-04-08T05:29:58.422Z,101343.28
2023-04-08T05:32:26.227Z,101347.50
2023-04-08T05:34:55.557Z,101349.44
2023-04-08T05:37:23.300Z,101352.31
2023-04-08T05:39:51.251Z,101356.53
2023-04-08T05:42:19.171Z,101351.69
2023-04-08T05:44:47.082Z,101351.53
2023-04-08T05:47:14.840Z,101356.44
2023-04-08T05:49:42.725Z,101363.34
2023-04-08T05:52:11.867Z,101364.44
2023-04-08T05:54:43.291Z,101369.41
2023-04-08T05:57:11.173Z,101366.19
2023-04-08T05:59:38.873Z,101371.50
2023-04-08T06:02:07.443Z,101374.91
2023-04-08T06:04:35.693Z,101377.22
2023-04-08T06:07:04.517Z,101370.53
2023-04-08T06:09:37.369Z,101376.81
2023-04-08T06:12:05.732Z,101386.56
2023-04-08T06:14:33.517Z,101388.97
2023-04-08T06:17:01.440Z,101394.81
2023-04-08T06:19:29.593Z,101387.13
2023-04-08T06:21:58.970Z,101386.00
2023-04-08T06:24:29.267Z,101388.69
2023-04-08T06:26:58.418Z,101392.38
2023-04-08T06:29:26.172Z,101396.22
2023-04-08T06:31:54.284Z,101404.66
2023-04-08T06:34:22.062Z,101399.94
2023-04-08T06:36:50.298Z,101407.97
2023-04-08T06:39:19.442Z,101410.84
2023-04-08T06:41:47.426Z,101412.16
2023-04-08T06:44:42.800Z,101408.25
2023-04-08T06:47:10.779Z,101413.13
2023-04-08T06:49:38.512Z,101414.41
2023-04-08T06:52:07.068Z,101419.19
2023-04-08T06:54:34.886Z,101423.66
2023-04-08T06:57:04.140Z,101422.22
2023-04-08T06:59:31.991Z,101425.63
2023-04-08T07:02:01.443Z,101416.34
2023-04-08T07:04:29.399Z,101418.22
2023-04-08T07:06:57.773Z,101423.69
2023-04-08T07:09:25.701Z,101424.97
2023-04-08T07:11:53.728Z,101430.13
2023-04-08T07:14:21.811Z,101426.91
2023-04-08T07:16:49.559Z,101430.00
2023-04-08T07:19:18.719Z,101438.88
2023-04-08T07:24:14.612Z,101445.38
2023-04-08T07:26:42.666Z,101438.09
2023-04-08T07:29:10.838Z,101441.13
2023-04-08T07:31:38.602Z,101446.00
2023-04-08T07:34:06.374Z,101451.31
2023-04-08T07:36:35.708Z,101452.16
2023-04-08T07:39:03.753Z,101448.78
2023-04-08T07:41:31.537Z,101451.75
2023-04-08T07:43:59.326Z,101456.00
2023-04-08T07:46:27.185Z,101463.09
2023-04-08T07:48:55.059Z,101455.91
2023-04-08T07:51:23.078Z,101458.00
2023-04-08T07:53:52.188Z,101460.53
2023-04-08T07:56:19.993Z,101469.41
2023-04-08T07:58:48.472Z,101454.59
2023-04-08T08:01:19.972Z,101463.13
2023-04-08T08:03:48.651Z,101459.97
2023-04-08T08:06:17.397Z,101468.91
2023-04-08T08:08:45.568Z,101462.91
2023-04-08T08:11:14.923Z,101467.53
2023-04-08T08:13:42.875Z,101469.19
2023-04-08T08:16:12.021Z,101474.00
2023-04-08T08:18:41.395Z,101486.88
2023-04-08T08:21:09.690Z,101481.28
2023-04-08T08:23:37.823Z,101478.31
2023-04-08T08:26:10.097Z,101492.16
2023-04-08T08:28:40.039Z,101495.06
2023-04-08T08:31:08.317Z,101501.66
2023-04-08T08:33:36.248Z,101507.94
2023-04-08T08:36:05.525Z,101504.59
2023-04-08T08:38:33.632Z,101508.69
2023-04-08T08:41:03.819Z,101510.75
2023-04-08T08:43:35.590Z,101502.13
2023-04-08T08:46:06.609Z,101497.47
2023-04-08T08:48:36.769Z,101505.44
2023-04-08T08:51:09.633Z,101511.47
2023-04-08T08:53:38.070Z,101512.63
2023-04-08T08:58:41.695Z,101514.59
2023-04-08T09:01:35.777Z,101512.50
2023-04-08T09:04:15.775Z,101512.25
2023-04-08T09:06:45.316Z,101509.84
2023-04-08T09:09:13.984Z,101509.19
2023-04-08T09:11:44.029Z,101518.19
2023-04-08T09:14:21.609Z,101517.03
2023-04-08T09:16:53.081Z,101523.88
2023-04-08T09:19:21.141Z,101526.75
2023-04-08T09:22:07.812Z,101527.41
2023-04-08T09:24:37.345Z,101526.72
2023-04-08T09:27:06.123Z,101518.81
2023-04-08T09:29:37.285Z,101523.34
2023-04-08T09:32:08.515Z,101513.41
2023-04-08T09:34:36.668Z,101521.03
2023-04-08T09:37:04.513Z,101517.63
2023-04-08T09:39:32.318Z,101520.78
2023-04-08T09:42:08.222Z,101517.56
2023-04-08T09:44:37.902Z,101521.91
2023-04-08T09:47:18.249Z,101517.00
2023-04-08T09:49:55.101Z,101525.94
2023-04-08T09:52:33.442Z,101517.94
2023-04-08T09:55:04.592Z,101528.09
2023-04-08T09:57:41.876Z,101526.66
2023-04-08T10:00:13.983Z,101527.28
2023-04-08T10:02:57.134Z,101522.94
2023-04-08T10:05:27.189Z,101528.25
2023-04-08T10:07:57.775Z,101522.63
2023-04-08T10:10:27.168Z,101520.16
2023-04-08T10:12:55.755Z,101523.75
2023-04-08T10:15:26.758Z,101527.06
2023-04-08T10:18:32.900Z,101510.56
2023-04-08T10:21:01.095Z,101521.63
2023-04-08T10:23:56.276Z,101526.25
2023-04-08T10:26:34.419Z,101521.22
2023-04-08T10:29:33.098Z,101520.97
2023-04-08T10:32:01.903Z,101519.78
2023-04-08T10:34:31.211Z,101525.56
2023-04-08T10:36:59.518Z,101524.06
2023-04-08T10:39:27.488Z,101529.06
2023-04-08T10:41:56.225Z,101528.84
2023-04-08T10:44:26.834Z,101534.84
2023-04-08T10:46:55.564Z,101529.28
2023-04-08T10:49:34.845Z,101529.03
2023-04-08T10:52:08.570Z,101531.69
2023-04-08T10:54:38.447Z,101531.53
2023-04-08T10:57:07.375Z,101527.88
2023-04-08T10:59:36.813Z,101521.72
2023-04-08T11:02:05.002Z,101519.75
2023-04-08T11:04:34.418Z,101521.16
2023-04-08T11:07:06.169Z,101520.44
2023-04-08T11:09:34.756Z,101518.63
2023-04-08T11:12:03.628Z,101525.38
2023-04-08T11:14:33.168Z,101523.38
2023-04-08T11:17:01.615Z,101514.00
2023-04-08T11:19:29.554Z,101514.78
2023-04-08T11:21:59.114Z,101518.25
2023-04-08T11:24:28.139Z,101522.53
2023-04-08T11:26:57.111Z,101520.16
2023-04-08T11:29:25.046Z,101513.75
2023-04-08T11:31:53.063Z,101513.25
2023-04-08T11:34:23.971Z,101517.91
2023-04-08T11:36:52.521Z,101507.09
2023-04-08T11:39:24.247Z,101512.28
2023-04-08T11:41:53.250Z,101520.25
2023-04-08T11:44:31.519Z,101511.63
2023-04-08T11:46:59.639Z,101514.56
2023-04-08T11:49:27.607Z,101522.25
2023-04-08T11:51:59.076Z,101520.03
2023-04-08T11:54:29.819Z,101524.28
2023-04-08T11:56:59.050Z,101519.69
2023-04-08T11:59:28.984Z,101523.91
2023-04-08T12:01:57.939Z,101520.94
2023-04-08T12:04:26.250Z,101520.09
2023-04-08T12:06:55.007Z,101522.22
2023-04-08T12:09:24.129Z,101521.22
2023-04-08T12:11:53.193Z,101526.34
2023-04-08T12:14:21.971Z,101525.19
2023-04-08T12:16:49.789Z,101526.06
2023-04-08T12:19:17.633Z,101531.13
2023-04-08T12:21:45.367Z,101532.19
2023-04-08T12:24:13.183Z,101530.00
2023-04-08T12:26:40.901Z,101530.75
2023-04-08T12:29:11.650Z,101528.16
2023-04-08T12:31:39.532Z,101526.41
2023-04-08T12:34:07.401Z,101526.69
2023-04-08T12:36:35.979Z,101528.38
2023-04-08T12:39:03.990Z,101520.44
2023-04-08T12:41:31.697Z,101527.13
2023-04-08T12:43:59.582Z,101538.53
2023-04-08T12:46:28.796Z,101538.78
2023-04-08T12:49:03.370Z,101540.28
2023-04-08T12:51:32.558Z,101540.41
2023-04-08T12:54:01.219Z,101530.94
2023-04-08T12:56:29.155Z,101536.66
2023-04-08T12:58:57.650Z,101532.00
2023-04-08T13:01:25.623Z,101517.50
2023-04-08T13:03:55.608Z,101525.97
2023-04-08T13:06:23.608Z,101527.97
2023-04-08T13:08:51.645Z,101529.69
2023-04-08T13:11:19.660Z,101530.19
2023-04-08T13:13:47.601Z,101530.28
2023-04-08T13:16:15.847Z,101528.63
2023-04-08T13:18:43.679Z,101523.28
2023-04-08T13:21:12.971Z,101522.72
2023-04-08T13:23:41.005Z,101526.81
2023-04-08T13:26:08.820Z,101521.22
2023-04-08T13:28:53.872Z,101520.63
2023-04-08T13:31:24.738Z,101523.91
2023-04-08T13:33:54.550Z,101521.31
2023-04-08T13:36:26.759Z,101534.25
2023-04-08T13:38:54.868Z,101527.53
2023-04-08T13:41:23.105Z,101529.56
2023-04-08T13:43:51.091Z,101536.06
2023-04-08T13:46:19.069Z,101529.78
2023-04-08T13:48:46.873Z,101532.28
2023-04-08T13:51:14.632Z,101524.00
2023-04-08T13:53:43.730Z,101533.25
2023-04-08T13:56:11.568Z,101529.09
2023-04-08T13:58:39.369Z,101531.19
2023-04-08T14:01:07.456Z,101526.63
2023-04-08T14:03:35.206Z,101534.03
2023-04-08T14:06:03.245Z,101532.81
2023-04-08T14:08:31.138Z,101532.53
2023-04-08T14:11:00.378Z,101526.88
2023-04-08T14:13:28.194Z,101527.59
2023-04-08T14:15:58.273Z,101534.44
2023-04-08T14:18:26.362Z,101534.13
2023-04-08T14:20:54.058Z,101532.09
2023-04-08T14:23:22.034Z,101526.16
2023-04-08T14:25:49.742Z,101535.66
2023-04-08T14:28:18.860Z,101533.78
2023-04-08T14:30:47.545Z,101520.28
2023-04-08T14:33:15.272Z,101523.75
2023-04-08T14:35:43.265Z,101519.72
2023-04-08T14:38:11.355Z,101517.75
2023-04-08T14:40:39.196Z,101527.03
2023-04-08T14:43:07.316Z,101526.66
2023-04-08T14:45:36.567Z,101534.13
2023-04-08T14:48:04.531Z,101525.19
2023-04-08T14:50:32.651Z,101524.47
2023-04-08T14:53:01.086Z,101530.97
2023-04-08T14:55:29.926Z,101523.31
2023-04-08T14:57:59.803Z,101529.81
2023-04-08T15:00:28.963Z,101519.22
2023-04-08T15:02:58.294Z,101520.09
2023-04-08T15:05:26.462Z,101517.91
2023-04-08T15:07:54.430Z,101525.69
2023-04-08T15:10:22.315Z,101530.28
2023-04-08T15:12:50.151Z,101520.16
2023-04-08T15:15:17.878Z,101518.00
2023-04-08T15:17:45.728Z,101520.16
2023-04-08T15:20:15.194Z,101518.19
2023-04-08T15:22:43.202Z,101519.31
2023-04-08T15:25:11.102Z,101520.19
2023-04-08T15:27:39.247Z,101523.88
2023-04-08T15:30:08.165Z,101517.75
2023-04-08T15:32:35.994Z,101523.38
2023-04-08T15:35:04.351Z,101520.81
2023-04-08T15:37:33.613Z,101519.06
2023-04-08T15:40:01.462Z,101513.69
2023-04-08T15:42:29.359Z,101523.50
2023-04-08T15:44:57.139Z,101513.50
2023-04-08T15:47:24.996Z,101521.44
2023-04-08T15:49:53.281Z,101519.78
2023-04-08T15:52:21.235Z,101520.81
2023-04-08T15:54:50.390Z,101513.75
2023-04-08T15:57:18.192Z,101521.19
2023-04-08T15:59:46.006Z,101517.97
2023-04-08T16:02:14.009Z,101515.44
2023-04-08T16:04:42.870Z,101514.28
2023-04-08T16:07:11.090Z,101516.41
2023-04-08T16:09:38.849Z,101523.03
2023-04-08T16:12:08.661Z,101520.50
2023-04-08T16:14:36.526Z,101519.50
2023-04-08T16:17:04.697Z,101521.97
2023-04-08T16:19:32.439Z,101516.28
2023-04-08T16:22:00.373Z,101523.38
2023-04-08T16:24:28.249Z,101520.00
2023-04-08T16:26:57.792Z,101520.44
2023-04-08T16:29:27.598Z,101518.56
2023-04-08T16:31:55.439Z,101518.47
2023-04-08T16:34:23.277Z,101531.75
2023-04-08T16:36:51.678Z,101520.72
2023-04-08T16:39:19.621Z,101523.38
2023-04-08T16:41:47.714Z,101520.81
2023-04-08T16:44:16.000Z,101525.56
2023-04-08T16:46:45.400Z,101516.44
2023-04-08T16:49:15.009Z,101527.22
2023-04-08T16:51:44.457Z,101527.50
2023-04-08T16:54:12.239Z,101519.41
2023-04-08T16:56:44.418Z,101523.03
2023-04-08T16:59:12.526Z,101526.50
2023-04-08T17:01:40.777Z,101523.41
2023-04-08T17:04:10.646Z,101525.84
2023-04-08T17:06:40.706Z,101522.44
2023-04-08T17:09:09.083Z,101527.00
2023-04-08T17:11:36.898Z,101530.13
2023-04-08T17:14:05.700Z,101523.38
2023-04-08T17:16:33.526Z,101524.94
2023-04-08T17:19:01.375Z,101521.28
2023-04-08T17:21:31.042Z,101535.00
2023-04-08T17:23:58.936Z,101541.75
2023-04-08T17:26:28.136Z,101537.50
2023-04-08T17:28:56.412Z,101540.13
2023-04-08T17:31:24.214Z,101541.06
2023-04-08T17:33:52.226Z,101550.03
2023-04-08T17:36:20.110Z,101551.16
2023-04-08T17:38:49.380Z,101543.47
2023-04-08T17:41:29.727Z,101551.63
2023-04-08T17:44:05.884Z,101549.06
2023-04-08T17:46:33.701Z,101546.53
2023-04-08T17:49:01.848Z,101549.06
2023-04-08T17:51:30.916Z,101547.63
2023-04-08T17:54:00.325Z,101561.00
2023-04-08T17:56:28.268Z,101554.81
2023-04-08T17:58:56.216Z,101563.00
2023-04-08T18:01:24.092Z,101564.19
2023-04-08T18:03:52.245Z,101562.88
2023-04-08T18:06:20.187Z,101565.00
2023-04-08T18:08:48.445Z,101567.31
2023-04-08T18:11:17.529Z,101570.31
2023-04-08T18:13:46.009Z,101565.22
2023-04-08T18:16:17.424Z,101569.53
2023-04-08T18:18:45.949Z,101572.16
2023-04-08T18:21:15.029Z,101582.34
2023-04-08T18:23:42.876Z,101587.09
2023-04-08T18:26:10.951Z,101584.97
2023-04-08T18:28:40.152Z,101590.09
2023-04-08T18:31:08.082Z,101590.31
2023-04-08T18:33:36.298Z,101594.44
2023-04-08T18:36:08.900Z,101594.44
2023-04-08T18:38:36.799Z,101601.88
2023-04-08T18:41:04.617Z,101600.72
2023-04-08T18:43:33.204Z,101601.53
2023-04-08T18:46:02.439Z,101605.03
2023-04-08T18:48:30.474Z,101614.84
2023-04-08T18:50:58.650Z,101615.84
2023-04-08T18:53:26.422Z,101616.84
2023-04-08T18:55:54.363Z,101616.72
2023-04-08T18:58:22.649Z,101616.63
2023-04-08T19:00:50.876Z,101615.28
2023-04-08T19:03:20.180Z,101614.75
2023-04-08T19:05:47.929Z,101620.75
2023-04-08T19:08:15.846Z,101615.41
2023-04-08T19:10:43.819Z,101623.72
2023-04-08T19:13:11.657Z,101617.22
2023-04-08T19:15:39.386Z,101624.19
2023-04-08T19:18:07.416Z,101621.28
2023-04-08T19:20:36.580Z,101623.84
2023-04-08T19:23:04.368Z,101627.13
2023-04-08T19:25:32.642Z,101621.69
2023-04-08T19:28:00.397Z,101630.19
2023-04-08T19:30:28.213Z,101629.72
2023-04-08T19:32:56.154Z,101630.66
2023-04-08T19:35:24.197Z,101634.34
2023-04-08T19:37:53.300Z,101627.13
2023-04-08T19:40:21.180Z,101630.19
2023-04-08T19:42:48.906Z,101631.72
2023-04-08T19:45:17.465Z,101628.69
2023-04-08T19:47:45.447Z,101627.66
2023-04-08T19:50:13.799Z,101625.34
2023-04-08T19:52:41.712Z,101634.59
2023-04-08T19:55:11.157Z,101634.13
2023-04-08T19:57:39.183Z,101629.53
2023-04-08T20:00:09.268Z,101634.00
2023-04-08T20:02:38.390Z,101635.78
2023-04-08T20:05:07.761Z,101637.19
2023-04-08T20:07:35.619Z,101637.81
2023-04-08T20:10:03.395Z,101633.00
2023-04-08T20:12:32.719Z,101636.16
2023-04-08T20:15:01.099Z,101638.88
2023-04-08T20:17:29.073Z,101643.56
2023-04-08T20:19:56.908Z,101646.47
2023-04-08T20:22:25.600Z,101643.88
2023-04-08T20:24:53.317Z,101643.69
2023-04-08T20:27:21.302Z,101642.25
2023-04-08T20:29:50.414Z,101648.41
2023-04-08T20:32:18.673Z,101647.75
2023-04-08T20:34:46.565Z,101646.91
2023-04-08T20:37:14.439Z,101645.53
2023-04-08T20:39:42.136Z,101651.84
2023-04-08T20:42:10.106Z,101652.28
2023-04-08T20:44:37.874Z,101651.78
2023-04-08T20:47:06.984Z,101655.06
2023-04-08T20:49:35.317Z,101654.91
2023-04-08T20:52:03.093Z,101661.22
2023-04-08T20:54:31.642Z,101653.41
2023-04-08T20:57:00.161Z,101649.22
2023-04-08T20:59:28.140Z,101659.03
2023-04-08T21:01:56.029Z,101652.63
2023-04-08T21:04:25.347Z,101651.53
2023-04-08T21:06:53.463Z,101651.41
2023-04-08T21:09:21.250Z,101655.22
2023-04-08T21:11:49.044Z,101653.06
2023-04-08T21:14:16.839Z,101653.31
2023-04-08T21:16:44.953Z,101654.94
2023-04-08T21:19:12.800Z,101648.25
2023-04-08T21:21:41.964Z,101646.88
2023-04-08T21:24:10.527Z,101651.91
2023-04-08T21:26:38.256Z,101649.59
2023-04-08T21:29:06.268Z,101650.28
2023-04-08T21:31:34.696Z,101646.75
2023-04-08T21:34:02.547Z,101650.03
2023-04-08T21:36:31.371Z,101650.13
2023-04-08T21:39:00.569Z,101646.38
2023-04-08T21:41:30.288Z,101648.03
2023-04-08T21:44:00.778Z,101639.63
2023-04-08T21:46:28.558Z,101642.88
2023-04-08T21:48:56.370Z,101636.06
2023-04-08T21:51:24.309Z,101638.19
2023-04-08T21:53:52.392Z,101640.72
2023-04-08T21:56:22.062Z,101643.63
2023-04-08T21:58:50.159Z,101646.63
2023-04-08T22:01:18.275Z,101645.56
2023-04-08T22:03:46.237Z,101646.91
2023-04-08T22:06:25.587Z,101648.69
2023-04-08T22:08:59.385Z,101649.03
2023-04-08T22:11:28.584Z,101641.25
2023-04-08T22:13:56.293Z,101647.44
2023-04-08T22:16:24.407Z,101639.28
2023-04-08T22:18:52.340Z,101650.34
2023-04-08T22:21:20.935Z,101646.34
2023-04-08T22:23:49.956Z,101649.50
2023-04-08T22:26:17.799Z,101634.66
2023-04-08T22:28:46.945Z,101638.94
2023-04-08T22:31:14.861Z,101635.53
2023-04-08T22:33:42.669Z,101634.84
2023-04-08T22:36:10.616Z,101637.38
2023-04-08T22:38:38.525Z,101638.06
2023-04-08T22:41:06.366Z,101639.97
2023-04-08T22:43:34.067Z,101639.38
2023-04-08T22:46:03.220Z,101641.03
2023-04-08T22:48:31.204Z,101639.03
2023-04-08T22:50:58.994Z,101643.69
2023-04-08T22:53:27.541Z,101646.06
2023-04-08T22:55:55.299Z,101640.25
2023-04-08T22:58:23.154Z,101639.66
2023-04-08T23:00:50.954Z,101642.00
2023-04-08T23:03:20.318Z,101630.41
2023-04-08T23:05:48.416Z,101629.13
2023-04-08T23:08:16.410Z,101631.09
2023-04-08T23:10:44.203Z,101635.31
2023-04-08T23:13:13.926Z,101642.00
2023-04-08T23:15:41.913Z,101631.97
2023-04-08T23:18:09.791Z,101640.09
2023-04-08T23:20:38.926Z,101639.34
2023-04-08T23:23:06.928Z,101630.66
2023-04-08T23:25:36.324Z,101629.06
2023-04-08T23:28:04.688Z,101633.56
2023-04-08T23:30:32.426Z,101633.25
2023-04-08T23:33:00.202Z,101634.63
2023-04-08T23:35:27.986Z,101625.16
2023-04-08T23:37:57.155Z,101626.31
2023-04-08T23:40:25.231Z,101629.88
2023-04-08T23:42:53.189Z,101620.19
2023-04-08T23:45:20.918Z,101620.75
2023-04-08T23:47:48.906Z,101621.97
2023-04-08T23:50:17.036Z,101615.25
2023-04-08T23:52:44.897Z,101620.16
2023-04-08T23:55:14.166Z,101625.19
2023-04-08T23:57:43.612Z,101623.16
